Time;durP1;ratioP1;P1;durP2;ratioP2;P2;SDS_P1;SDS_P2;PMS_P1;PMS_P2;Temp;Humidity;BMP_temperature;BMP_pressure;BME280_temperature;BME280_humidity;BME280_pressure;Samples;Min_cycle;Max_cycle;Signal;HPM_P1;HPM_P2
2022/09/16 00:02:25;;;;;;;22.85;9.00;;;;;;;13.37;95.70;97728.73;2173367;81;20984;-81
2022/09/16 00:05:25;;;;;;;19.85;9.28;;;;;;;13.35;95.68;97724.82;2173301;81;20946;-82
2022/09/16 00:08:26;;;;;;;12.50;8.20;;;;;;;13.35;95.69;97736.62;2173544;81;20949;-82
2022/09/16 00:11:26;;;;;;;11.70;7.10;;;;;;;13.33;95.81;97742.33;2173768;81;20996;-82
2022/09/16 00:14:27;;;;;;;9.65;6.33;;;;;;;13.32;95.83;97735.36;2173519;81;20972;-82
2022/09/16 00:17:28;;;;;;;10.03;6.78;;;;;;;13.31;95.61;97740.62;2173442;81;20973;-82
2022/09/16 00:20:27;;;;;;;8.35;6.42;;;;;;;13.29;95.72;97753.75;2173621;81;20925;-82
2022/09/16 00:23:28;;;;;;;16.17;7.08;;;;;;;13.30;95.77;97750.69;2173507;81;20933;-81
2022/09/16 00:26:28;;;;;;;23.90;8.43;;;;;;;13.30;95.65;97753.31;2173315;81;21360;-81
2022/09/16 00:29:29;;;;;;;12.93;7.42;;;;;;;13.30;95.71;97757.23;2173246;81;20956;-81
2022/09/16 00:32:29;;;;;;;27.95;8.88;;;;;;;13.30;95.61;97754.17;2173439;81;20996;-81
2022/09/16 00:35:29;;;;;;;14.85;9.23;;;;;;;13.31;95.76;97761.14;2173348;81;20948;-82
2022/09/16 00:38:30;;;;;;;16.50;6.97;;;;;;;13.31;95.73;97766.83;2173653;81;20961;-82
2022/09/16 00:41:32;;;;;;;14.53;7.53;;;;;;;13.30;95.65;97774.27;2173586;81;20960;-83
2022/09/16 00:44:31;;;;;;;14.45;7.47;;;;;;;13.29;95.83;97770.79;2173588;81;20929;-82
2022/09/16 00:47:32;;;;;;;16.73;8.03;;;;;;;13.28;95.83;97772.98;2173668;81;20906;-83
2022/09/16 00:50:34;;;;;;;14.87;8.60;;;;;;;13.26;96.11;97762.98;2173700;81;20933;-82
2022/09/16 00:53:33;;;;;;;14.68;9.48;;;;;;;13.24;96.07;97766.52;2173645;81;20977;-82
2022/09/16 00:56:33;;;;;;;20.27;9.58;;;;;;;13.22;96.40;97766.53;2173357;81;21351;-82
2022/09/16 00:59:33;;;;;;;17.75;9.40;;;;;;;13.22;96.43;97767.84;2173408;81;20996;-82
2022/09/16 01:02:34;;;;;;;18.98;9.23;;;;;;;13.21;96.55;97767.87;2173952;81;20929;-78
2022/09/16 01:05:34;;;;;;;22.35;9.78;;;;;;;13.19;96.50;97765.72;2173362;81;21383;-83
2022/09/16 01:08:35;;;;;;;17.07;9.10;;;;;;;13.17;96.58;97763.13;2174098;81;20956;-82
2022/09/16 01:11:35;;;;;;;19.10;9.20;;;;;;;13.18;96.61;97767.47;2174073;81;20975;-82
2022/09/16 01:14:54;;;;;;;15.35;9.60;;;;;;;13.16;96.41;97769.22;2174196;81;20925;-82
2022/09/16 01:17:54;;;;;;;20.95;10.03;;;;;;;13.15;96.57;97770.55;2174378;82;20937;-82
2022/09/16 01:20:54;;;;;;;20.65;10.98;;;;;;;13.14;96.43;97770.13;2173668;81;21309;-81
2022/09/16 01:23:55;;;;;;;22.02;10.20;;;;;;;13.11;96.49;97765.80;2173748;81;21012;-82
2022/09/16 01:26:55;;;;;;;13.75;8.93;;;;;;;13.06;96.57;97768.94;2173292;81;20933;-82
2022/09/16 01:29:56;;;;;;;17.80;9.15;;;;;;;13.02;96.42;97772.49;2173679;82;21043;-83
2022/09/16 01:32:56;;;;;;;14.55;9.35;;;;;;;12.96;96.37;97772.55;2173825;81;21016;-82
2022/09/16 01:35:56;;;;;;;14.07;9.25;;;;;;;12.92;96.68;97769.55;2173817;81;21028;-82
2022/09/16 01:38:57;;;;;;;16.77;8.85;;;;;;;12.85;96.53;97771.40;2174241;81;20972;-82
2022/09/16 01:41:58;;;;;;;18.70;10.05;;;;;;;12.79;96.59;97769.31;2173893;81;20886;-81
2022/09/16 01:44:58;;;;;;;21.70;9.40;;;;;;;12.71;96.62;97778.13;2174083;81;20933;-82
2022/09/16 01:47:58;;;;;;;17.77;10.28;;;;;;;12.67;96.79;97781.69;2174577;81;20941;-80
2022/09/16 01:50:58;;;;;;;15.15;10.00;;;;;;;12.61;96.69;97775.22;2174320;82;20997;-82
2022/09/16 01:53:59;;;;;;;13.53;10.58;;;;;;;12.55;96.76;97771.38;2174243;81;20921;-82
2022/09/16 01:56:59;;;;;;;18.32;10.58;;;;;;;12.51;97.02;97781.91;2173834;81;20886;-82
2022/09/16 02:00:00;;;;;;;22.82;9.13;;;;;;;12.46;97.10;97779.79;2173874;81;21036;-82
2022/09/16 02:03:00;;;;;;;17.73;10.05;;;;;;;12.40;97.41;97780.73;2173959;81;20940;-82
2022/09/16 02:06:01;;;;;;;18.60;8.90;;;;;;;12.33;97.47;97772.09;2173940;81;20956;-82
2022/09/16 02:09:01;;;;;;;10.10;7.08;;;;;;;12.28;97.84;97771.72;2173802;82;20929;-82
2022/09/16 02:12:04;;;;;;;16.17;6.53;;;;;;;12.22;97.55;97763.50;2173748;81;21149;-81
2022/09/16 02:15:02;;;;;;;18.70;7.70;;;;;;;12.16;97.34;97766.63;2174036;82;20957;-84
2022/09/16 02:18:02;;;;;;;19.27;8.83;;;;;;;12.10;97.53;97768.41;2174058;81;20961;-84
2022/09/16 02:21:03;;;;;;;15.63;8.48;;;;;;;12.05;97.66;97773.27;2173433;81;20945;-82
2022/09/16 02:24:03;;;;;;;14.03;9.25;;;;;;;11.99;97.54;97772.89;2173251;81;21388;-81
2022/09/16 02:27:04;;;;;;;19.15;8.10;;;;;;;11.95;97.71;97776.86;2173244;81;21076;-82
2022/09/16 02:30:04;;;;;;;16.60;7.83;;;;;;;11.90;97.77;97775.59;2173647;81;20965;-81
2022/09/16 02:33:04;;;;;;;16.05;8.30;;;;;;;11.86;97.83;97771.72;2173546;81;20972;-81
2022/09/16 02:36:05;;;;;;;22.50;8.85;;;;;;;11.82;97.85;97776.56;2173485;81;20894;-81
2022/09/16 02:39:07;;;;;;;22.67;9.80;;;;;;;11.79;98.02;97791.84;2173775;81;20941;-82
2022/09/16 02:42:05;;;;;;;12.82;8.35;;;;;;;11.75;98.09;97795.33;2173401;81;20922;-81
2022/09/16 02:45:06;;;;;;;10.82;8.33;;;;;;;11.73;98.44;97795.78;2173345;81;20945;-82
2022/09/16 02:48:06;;;;;;;15.28;6.83;;;;;;;11.71;98.32;97798.85;2173764;81;20980;-81
2022/09/16 02:51:07;;;;;;;15.50;7.30;;;;;;;11.69;98.55;97794.08;2173620;81;21012;-82
2022/09/16 02:54:07;;;;;;;18.95;6.85;;;;;;;11.67;98.42;97795.84;2173525;81;20941;-82
2022/09/16 02:57:07;;;;;;;9.13;5.47;;;;;;;11.65;98.51;97789.32;2173693;81;20925;-81
2022/09/16 03:00:08;;;;;;;10.20;5.12;;;;;;;11.65;98.27;97797.60;2173440;81;20980;-81
2022/09/16 03:03:08;;;;;;;13.00;5.78;;;;;;;11.65;98.42;97789.32;2173709;81;20925;-81
2022/09/16 03:06:09;;;;;;;9.83;5.03;;;;;;;11.65;98.32;97798.91;2173604;81;20949;-81
2022/09/16 03:09:09;;;;;;;17.27;6.08;;;;;;;11.66;98.49;97804.13;2173642;81;20925;-81
2022/09/16 03:12:10;;;;;;;16.05;5.40;;;;;;;11.69;98.39;97809.77;2173547;81;21326;-81
2022/09/16 03:15:10;;;;;;;11.70;5.33;;;;;;;11.71;98.36;97808.00;2173421;81;20933;-81
2022/09/16 03:18:10;;;;;;;13.30;5.28;;;;;;;11.74;98.13;97805.36;2173427;81;20969;-81
2022/09/16 03:21:11;;;;;;;9.23;5.75;;;;;;;11.79;97.97;97808.83;2173621;81;20968;-82
2022/09/16 03:24:11;;;;;;;10.08;5.80;;;;;;;11.84;97.85;97817.50;2173572;81;20926;-82
2022/09/16 03:27:11;;;;;;;12.95;6.00;;;;;;;11.88;97.75;97815.28;2183314;81;20996;-82
2022/09/16 03:30:12;;;;;;;17.97;7.20;;;;;;;11.89;97.69;97811.78;2189804;81;21043;-81
2022/09/16 03:33:12;;;;;;;13.40;6.33;;;;;;;11.89;97.66;97814.40;2189560;81;21352;-82
2022/09/16 03:36:13;;;;;;;15.63;7.28;;;;;;;11.84;97.42;97812.27;2189179;81;21003;-80
2022/09/16 03:39:13;;;;;;;9.85;5.67;;;;;;;11.77;97.27;97806.23;2187257;81;20917;-82
2022/09/16 03:42:13;;;;;;;20.62;5.53;;;;;;;11.73;97.23;97797.09;2188591;81;21370;-81
2022/09/16 03:45:14;;;;;;;11.85;5.42;;;;;;;11.66;97.08;97804.13;2189177;81;20912;-81
2022/09/16 03:48:14;;;;;;;13.22;6.33;;;;;;;11.58;97.24;97803.77;2189519;81;20996;-82
2022/09/16 03:51:15;;;;;;;12.00;6.28;;;;;;;11.51;97.44;97804.26;2189680;81;21385;-79
2022/09/16 03:54:15;;;;;;;17.55;6.17;;;;;;;11.45;97.33;97803.88;2190111;81;20928;-79
2022/09/16 03:57:16;;;;;;;14.65;5.22;;;;;;;11.39;97.49;97805.23;2189919;81;20984;-79
2022/09/16 04:00:16;;;;;;;13.72;5.70;;;;;;;11.34;97.68;97805.70;2189328;81;21052;-82
2022/09/16 04:03:17;;;;;;;17.35;6.08;;;;;;;11.31;97.81;97812.70;2188491;81;20986;-82
2022/09/16 04:06:17;;;;;;;16.10;6.50;;;;;;;11.26;97.56;97809.22;2187983;81;21027;-82
2022/09/16 04:09:17;;;;;;;9.10;5.40;;;;;;;11.21;97.67;97811.86;2188503;81;20999;-81
2022/09/16 04:12:20;;;;;;;22.77;6.42;;;;;;;11.17;97.77;97818.86;2188494;81;20983;-80
2022/09/16 04:15:20;;;;;;;7.55;5.03;;;;;;;11.14;97.70;97821.48;2175123;81;20945;-78
2022/09/16 04:18:22;;;;;;;8.33;5.25;;;;;;;11.14;98.20;97821.48;2190087;81;20995;-83
2022/09/16 04:21:23;;;;;;;11.57;5.50;;;;;;;11.11;97.88;97813.67;2173975;81;21026;-83
2022/09/16 04:24:23;;;;;;;15.10;6.13;;;;;;;11.13;97.80;97821.06;2189821;81;21084;-82
2022/09/16 04:27:23;;;;;;;16.53;6.80;;;;;;;11.14;97.97;97821.92;2179683;81;21008;-83
2022/09/16 04:30:24;;;;;;;12.82;6.90;;;;;;;11.15;97.59;97810.60;2171820;81;21130;-81
2022/09/16 04:33:24;;;;;;;14.20;8.08;;;;;;;11.17;97.37;97819.30;2173307;82;21055;-82
2022/09/16 04:36:25;;;;;;;8.97;6.83;;;;;;;11.20;97.18;97817.10;2173122;81;21437;-82
2022/09/16 04:39:25;;;;;;;20.00;6.62;;;;;;;11.24;97.09;97815.77;2173723;82;20982;-82
2022/09/16 04:42:26;;;;;;;18.25;6.47;;;;;;;11.28;96.83;97817.51;2173255;81;20906;-83
2022/09/16 04:45:26;;;;;;;13.10;5.90;;;;;;;11.35;96.66;97813.97;2172927;81;20995;-85
2022/09/16 04:48:26;;;;;;;17.37;6.45;;;;;;;11.41;96.57;97814.36;2171176;81;20991;-82
2022/09/16 04:51:27;;;;;;;13.13;6.15;;;;;;;11.49;96.51;97824.31;2170066;81;21015;-80
2022/09/16 04:54:27;;;;;;;11.68;5.72;;;;;;;11.55;96.06;97818.17;2170061;81;21076;-82
2022/09/16 04:57:28;;;;;;;12.05;6.50;;;;;;;11.62;95.81;97823.77;2170757;82;20961;-80
2022/09/16 05:00:28;;;;;;;14.15;6.33;;;;;;;11.69;95.25;97830.68;2170618;81;21099;-80
2022/09/16 05:03:28;;;;;;;9.93;5.75;;;;;;;11.75;94.89;97835.85;2170987;81;20968;-82
2022/09/16 05:06:29;;;;;;;13.60;5.72;;;;;;;11.79;94.61;97833.67;2170800;81;21468;-81
2022/09/16 05:09:29;;;;;;;14.50;5.67;;;;;;;11.84;93.99;97838.41;2170253;81;20953;-82
2022/09/16 05:12:30;;;;;;;10.58;6.22;;;;;;;11.90;93.46;97838.80;2170679;82;21008;-81
2022/09/16 05:15:30;;;;;;;14.75;6.20;;;;;;;11.99;93.44;97825.64;2170129;82;21004;-78
2022/09/16 05:18:31;;;;;;;12.28;5.17;;;;;;;12.11;93.14;97819.84;2169042;81;21408;-82
2022/09/16 05:21:31;;;;;;;16.75;6.15;;;;;;;12.20;92.10;97820.66;2171835;81;20946;-83
2022/09/16 05:24:31;;;;;;;8.40;4.25;;;;;;;12.25;91.99;97820.16;2172909;81;21040;-83
2022/09/16 05:27:32;;;;;;;14.58;5.55;;;;;;;12.30;91.56;97823.59;2171352;81;20953;-83
2022/09/16 05:30:32;;;;;;;10.68;5.00;;;;;;;12.34;91.27;97827.91;2171347;82;21016;-83
2022/09/16 05:33:33;;;;;;;11.18;5.00;;;;;;;12.40;91.08;97827.39;2170996;81;21014;-83
2022/09/16 05:36:33;;;;;;;10.58;4.62;;;;;;;12.46;90.16;97811.20;2169729;81;20996;-78
2022/09/16 05:39:35;;;;;;;10.45;4.92;;;;;;;12.63;90.05;97816.64;2157414;82;21063;-83
2022/09/16 05:42:36;;;;;;;18.40;4.65;;;;;;;12.82;89.21;97823.81;2171712;81;21004;-80
2022/09/16 05:45:37;;;;;;;7.90;4.12;;;;;;;12.98;89.00;97830.58;2171296;81;20965;-81
2022/09/16 05:48:37;;;;;;;16.93;4.87;;;;;;;13.04;88.11;97832.28;2171027;81;21023;-81
2022/09/16 05:51:37;;;;;;;9.63;3.90;;;;;;;13.08;88.01;97836.59;2171162;81;21082;-82
2022/09/16 05:54:37;;;;;;;5.87;4.05;;;;;;;13.04;86.69;97834.90;2170888;81;21023;-81
2022/09/16 05:57:38;;;;;;;11.43;3.80;;;;;;;13.02;87.54;97830.13;2171717;81;20964;-83
2022/09/16 06:00:38;;;;;;;7.17;3.95;;;;;;;13.05;87.17;97824.40;2172014;81;21040;-82
2022/09/16 06:03:39;;;;;;;6.58;3.60;;;;;;;13.03;87.34;97827.48;2171734;81;21884;-80
2022/09/16 06:06:39;;;;;;;7.17;3.65;;;;;;;13.07;86.83;97827.00;2170423;81;20987;-82
2022/09/16 06:09:40;;;;;;;7.78;3.80;;;;;;;13.10;86.86;97826.95;2170702;81;20977;-82
2022/09/16 06:12:40;;;;;;;6.62;3.77;;;;;;;13.19;86.73;97832.09;2171426;81;21039;-83
2022/09/16 06:15:42;;;;;;;7.42;3.92;;;;;;;13.13;86.57;97829.97;2186219;81;21910;-81
2022/09/16 06:18:42;;;;;;;10.63;4.33;;;;;;;13.06;86.75;97830.06;2170665;82;21035;-82
2022/09/16 06:21:42;;;;;;;12.35;4.30;;;;;;;12.99;87.15;97835.38;2171354;81;21100;-82
2022/09/16 06:24:42;;;;;;;10.05;4.10;;;;;;;12.90;87.61;97830.26;2170778;81;21686;-81
2022/09/16 06:27:43;;;;;;;12.28;4.10;;;;;;;12.91;88.41;97824.14;2171127;81;20973;-83
2022/09/16 06:30:43;;;;;;;9.20;4.22;;;;;;;12.98;88.16;97829.71;2171508;81;21071;-82
2022/09/16 06:33:44;;;;;;;7.40;3.40;;;;;;;13.03;87.91;97830.55;2171210;81;20964;-82
2022/09/16 06:36:45;;;;;;;7.03;3.58;;;;;;;13.06;87.79;97828.75;2171197;82;21000;-84
2022/09/16 06:39:45;;;;;;;4.33;3.30;;;;;;;13.08;87.23;97834.83;2171588;81;20999;-82
2022/09/16 06:42:46;;;;;;;7.40;4.00;;;;;;;13.08;86.62;97836.14;2170519;81;21290;-84
2022/09/16 06:45:46;;;;;;;6.40;3.65;;;;;;;13.08;86.35;97836.59;2171114;81;20999;-83
2022/09/16 06:48:49;;;;;;;9.38;4.40;;;;;;;13.08;86.41;97827.42;2171000;81;20983;-83
2022/09/16 06:51:50;;;;;;;21.65;9.03;;;;;;;13.17;86.85;97830.38;2164711;82;21493;-82
2022/09/16 06:54:49;;;;;;;16.65;6.33;;;;;;;13.32;86.43;97832.77;2171974;81;20988;-81
2022/09/16 06:57:50;;;;;;;9.70;4.87;;;;;;;13.35;86.10;97829.66;2171446;81;20957;-84
2022/09/16 07:00:50;;;;;;;14.98;6.30;;;;;;;13.37;86.06;97837.05;2173076;81;21936;-81
2022/09/16 07:03:51;;;;;;;14.93;6.72;;;;;;;13.38;86.04;97830.06;2174339;81;21052;-83
2022/09/16 07:06:51;;;;;;;21.42;7.83;;;;;;;13.38;86.39;97830.92;2174718;81;21016;-84
2022/09/16 07:09:53;;;;;;;14.83;7.17;;;;;;;13.45;86.20;97843.94;2173485;81;20949;-84
2022/09/16 07:12:53;;;;;;;12.78;6.67;;;;;;;13.51;86.69;97849.08;2173368;82;21023;-82
2022/09/16 07:15:54;;;;;;;12.45;5.28;;;;;;;13.55;86.48;97841.14;2172922;82;21054;-83
2022/09/16 07:18:54;;;;;;;8.05;4.95;;;;;;;13.63;85.53;97841.02;2172776;81;20953;-82
2022/09/16 07:21:54;;;;;;;20.65;8.50;;;;;;;13.66;85.99;97840.97;2171587;81;20992;-82
2022/09/16 07:24:55;;;;;;;24.60;10.38;;;;;;;13.73;85.97;97845.22;2170713;81;21023;-81
2022/09/16 07:27:55;;;;;;;14.75;6.62;;;;;;;13.80;85.69;97856.48;2178766;81;20984;-83
2022/09/16 07:30:56;;;;;;;14.25;8.83;;;;;;;13.93;85.87;97853.66;2188573;81;21050;-83
2022/09/16 07:33:56;;;;;;;18.92;10.28;;;;;;;14.08;84.21;97860.39;2187504;81;21433;-82
2022/09/16 07:36:57;;;;;;;25.48;11.20;;;;;;;14.00;84.97;97860.52;2187522;81;21396;-82
2022/09/16 07:39:57;;;;;;;21.30;7.95;;;;;;;13.96;85.46;97858.84;2187415;81;20964;-81
2022/09/16 07:42:57;;;;;;;11.10;6.60;;;;;;;14.02;85.40;97867.06;2187613;81;20967;-82
2022/09/16 07:45:58;;;;;;;19.15;5.55;;;;;;;14.01;85.29;97863.57;2187082;81;20991;-82
2022/09/16 07:48:58;;;;;;;12.30;6.33;;;;;;;14.10;84.92;97862.54;2186756;81;21385;-82
2022/09/16 07:51:59;;;;;;;15.48;6.42;;;;;;;14.24;85.15;97855.73;2186275;81;20988;-83
2022/09/16 07:54:59;;;;;;;11.78;6.47;;;;;;;14.39;84.85;97859.37;2187310;81;20964;-83
2022/09/16 07:57:59;;;;;;;15.98;9.25;;;;;;;14.54;84.60;97856.49;2187397;81;21237;-84
2022/09/16 08:01:01;;;;;;;35.60;15.25;;;;;;;14.73;83.66;97857.44;2187429;81;21021;-83
2022/09/16 08:04:00;;;;;;;16.62;8.98;;;;;;;14.80;82.66;97849.88;2187168;81;21023;-82
2022/09/16 08:07:01;;;;;;;14.40;4.65;;;;;;;14.84;80.97;97860.73;2186268;81;20922;-82
2022/09/16 08:10:01;;;;;;;9.90;4.40;;;;;;;14.77;80.45;97857.83;2188768;81;20971;-82
2022/09/16 08:13:02;;;;;;;4.72;3.30;;;;;;;14.84;81.16;97862.05;2187322;81;20976;-79
2022/09/16 08:16:02;;;;;;;13.28;3.45;;;;;;;15.00;79.92;97864.77;2187578;81;20987;-81
2022/09/16 08:19:02;;;;;;;6.97;3.12;;;;;;;15.11;79.59;97865.41;2186558;81;20971;-83
2022/09/16 08:22:03;;;;;;;5.05;2.52;;;;;;;15.34;78.74;97875.86;2188087;81;21476;-83
2022/09/16 08:25:03;;;;;;;11.05;3.00;;;;;;;15.35;75.07;97883.72;2186884;81;20987;-82
2022/09/16 08:28:04;;;;;;;7.42;2.90;;;;;;;15.22;75.60;97875.69;2186331;81;21055;-83
2022/09/16 08:31:04;;;;;;;3.77;2.40;;;;;;;15.31;74.93;97879.42;2186778;81;21051;-83
2022/09/16 08:34:05;;;;;;;7.10;3.22;;;;;;;15.38;74.11;97876.20;2186731;81;21929;-82
2022/09/16 08:37:05;;;;;;;7.83;3.55;;;;;;;15.37;76.09;97866.59;2186835;81;20932;-81
2022/09/16 08:40:08;;;;;;;7.97;2.87;;;;;;;15.45;73.35;97870.77;2187272;81;20985;-82
2022/09/16 08:43:09;;;;;;;6.12;2.47;;;;;;;15.46;72.16;97867.69;2187976;81;20983;-81
2022/09/16 08:46:10;;;;;;;12.07;5.45;;;;;;;15.58;72.12;97860.86;2188043;81;21007;-83
2022/09/16 08:49:10;;;;;;;15.85;6.53;;;;;;;16.06;74.02;97857.95;2188811;81;20971;-83
2022/09/16 08:52:10;;;;;;;19.90;7.92;;;;;;;16.53;70.95;97861.53;2187531;81;21039;-83
2022/09/16 08:55:10;;;;;;;19.85;6.97;;;;;;;16.75;70.31;97865.78;2187214;81;20947;-82
2022/09/16 08:58:11;;;;;;;15.95;5.03;;;;;;;17.09;68.21;97858.22;2186750;81;21327;-82
2022/09/16 09:01:11;;;;;;;7.90;3.08;;;;;;;17.48;68.56;97858.34;2187327;81;21038;-82
2022/09/16 09:04:12;;;;;;;13.70;6.72;;;;;;;17.90;64.58;97859.69;2186097;81;21385;-81
2022/09/16 09:07:12;;;;;;;12.65;6.78;;;;;;;17.92;64.65;97860.50;2185997;81;20992;-81
2022/09/16 09:10:13;;;;;;;14.60;6.28;;;;;;;18.01;64.45;97857.55;2186661;81;21217;-81
2022/09/16 09:13:14;;;;;;;14.85;7.05;;;;;;;17.89;61.14;97863.23;2186923;81;21043;-81
2022/09/16 09:16:16;;;;;;;23.30;8.60;;;;;;;17.73;62.22;97868.16;2168078;81;21399;-82
2022/09/16 09:19:16;;;;;;;6.00;3.45;;;;;;;17.71;61.21;97868.66;2187330;81;21003;-81
2022/09/16 09:22:17;;;;;;;9.70;2.83;;;;;;;17.64;61.32;97869.28;2187643;81;20944;-82
2022/09/16 09:25:17;;;;;;;6.58;1.77;;;;;;;17.64;59.04;97864.45;2187491;81;21646;-81
2022/09/16 09:28:20;;;;;;;4.67;1.70;;;;;;;17.40;61.17;97869.59;2179819;81;21024;-82
2022/09/16 09:31:18;;;;;;;5.25;3.22;;;;;;;17.27;60.82;97863.39;2171509;81;21315;-82
2022/09/16 09:34:18;;;;;;;13.15;5.47;;;;;;;17.27;62.51;97859.44;2171261;81;21023;-81
2022/09/16 09:37:19;;;;;;;3.67;2.67;;;;;;;17.48;62.35;97861.44;2171407;81;20973;-81
2022/09/16 09:40:19;;;;;;;8.90;3.35;;;;;;;17.39;60.12;97865.23;2171173;81;20972;-82
2022/09/16 09:43:19;;;;;;;4.03;2.10;;;;;;;17.35;60.05;97845.59;2170846;81;21544;-81
2022/09/16 09:46:22;;;;;;;4.15;1.90;;;;;;;17.40;60.01;97859.04;2170457;81;21027;-79
2022/09/16 09:49:20;;;;;;;4.20;1.98;;;;;;;17.60;60.67;97854.45;2169046;81;21040;-82
2022/09/16 09:52:21;;;;;;;8.05;1.90;;;;;;;17.82;59.74;97855.97;2170980;81;21462;-81
2022/09/16 09:55:23;;;;;;;8.95;1.98;;;;;;;18.26;59.25;97854.51;2170889;82;21013;-80
2022/09/16 09:58:22;;;;;;;2.02;1.70;;;;;;;18.68;57.87;97849.97;2170542;81;20960;-82
2022/09/16 10:01:22;;;;;;;3.52;1.75;;;;;;;18.96;56.06;97855.97;2170235;81;21012;-81
2022/09/16 10:04:22;;;;;;;4.72;1.60;;;;;;;18.77;56.37;97858.43;2169900;81;21040;-81
2022/09/16 10:07:23;;;;;;;9.00;1.82;;;;;;;18.41;55.57;97853.11;2169444;81;21388;-81
2022/09/16 10:10:23;;;;;;;9.53;2.42;;;;;;;18.16;56.86;97850.42;2169551;81;20996;-81
2022/09/16 10:13:24;;;;;;;3.87;2.10;;;;;;;17.91;58.09;97853.48;2170018;81;21261;-80
2022/09/16 10:16:24;;;;;;;6.03;3.12;;;;;;;17.96;57.18;97848.92;2169746;81;21389;-81
2022/09/16 10:19:24;;;;;;;3.70;2.83;;;;;;;18.03;57.56;97849.98;2169856;81;20972;-80
2022/09/16 10:22:25;;;;;;;3.05;2.17;;;;;;;18.11;57.29;97847.08;2170586;81;20965;-83
2022/09/16 10:25:25;;;;;;;4.53;1.87;;;;;;;18.00;57.36;97847.44;2171745;81;21392;-82
2022/09/16 10:28:26;;;;;;;3.75;2.12;;;;;;;17.93;58.12;97852.98;2178082;81;21063;-82
2022/09/16 10:31:26;;;;;;;4.65;2.30;;;;;;;17.76;56.41;97858.36;2188117;81;21044;-82
2022/09/16 10:34:26;;;;;;;5.30;1.87;;;;;;;17.61;57.84;97869.38;2187897;81;21459;-83
2022/09/16 10:37:27;;;;;;;7.35;3.37;;;;;;;17.37;55.93;97872.78;2188409;81;20960;-82
2022/09/16 10:40:27;;;;;;;6.47;3.33;;;;;;;17.28;57.03;97863.34;2187640;81;21011;-82
2022/09/16 10:43:28;;;;;;;10.40;4.75;;;;;;;17.39;57.18;97861.27;2187364;81;21042;-82
2022/09/16 10:46:28;;;;;;;8.15;2.50;;;;;;;17.63;57.88;97858.31;2186807;81;20960;-82
2022/09/16 10:49:28;;;;;;;2.62;2.05;;;;;;;17.78;58.51;97855.67;2188117;81;21024;-83
2022/09/16 10:52:29;;;;;;;4.40;1.80;;;;;;;17.95;59.00;97843.23;2188570;81;21011;-82
2022/09/16 10:55:31;;;;;;;3.33;1.65;;;;;;;18.08;59.33;97852.47;2187545;81;20980;-83
2022/09/16 10:58:30;;;;;;;3.20;1.80;;;;;;;17.97;59.64;97851.97;2188045;81;20916;-82
2022/09/16 11:01:31;;;;;;;4.95;1.60;;;;;;;18.11;59.66;97845.76;2189092;81;21420;-81
2022/09/16 11:04:31;;;;;;;3.52;1.92;;;;;;;18.40;60.03;97837.72;2188495;81;20940;-82
2022/09/16 11:07:32;;;;;;;4.42;1.75;;;;;;;18.66;59.82;97839.91;2187969;81;20944;-82
2022/09/16 11:10:31;;;;;;;2.52;1.90;;;;;;;18.62;58.88;97834.34;2188160;81;21340;-81
2022/09/16 11:13:32;;;;;;;3.08;1.85;;;;;;;18.93;59.39;97832.74;2187790;81;21056;-82
2022/09/16 11:16:32;;;;;;;1.80;1.67;;;;;;;19.45;56.97;97839.55;2188466;81;20940;-82
2022/09/16 11:19:33;;;;;;;2.45;1.30;;;;;;;19.86;56.43;97839.70;2187232;81;20968;-82
2022/09/16 11:22:36;;;;;;;2.67;1.70;;;;;;;20.12;53.75;97835.53;2186918;81;21015;-82
2022/09/16 11:25:37;;;;;;;2.98;1.60;;;;;;;20.11;54.02;97827.19;2186930;81;20980;-82
2022/09/16 11:28:37;;;;;;;2.83;1.90;;;;;;;20.03;53.93;97818.70;2180688;81;21047;-80
2022/09/16 11:31:37;;;;;;;2.47;1.60;;;;;;;19.78;54.89;97816.65;2171443;82;21047;-79
2022/09/16 11:34:37;;;;;;;7.95;2.17;;;;;;;19.57;53.88;97809.98;2171249;81;22036;-79
2022/09/16 11:37:38;;;;;;;8.13;2.02;;;;;;;19.12;55.69;97813.10;2170003;81;21000;-79
2022/09/16 11:40:38;;;;;;;2.47;2.08;;;;;;;18.69;56.57;97818.66;2169061;82;21022;-79
2022/09/16 11:43:39;;;;;;;2.95;1.95;;;;;;;18.29;56.92;97819.20;2169792;81;21459;-80
2022/09/16 11:46:39;;;;;;;2.98;1.90;;;;;;;17.72;58.33;97822.88;2170378;81;21008;-81
2022/09/16 11:49:39;;;;;;;6.03;1.77;;;;;;;17.38;60.10;97817.80;2169661;81;21015;-83
2022/09/16 11:52:40;;;;;;;1.70;1.60;;;;;;;17.02;60.90;97825.90;2169311;81;21008;-80
2022/09/16 11:55:41;;;;;;;2.33;1.80;;;;;;;16.79;62.32;97824.40;2169787;81;20984;-81
2022/09/16 11:58:41;;;;;;;4.10;2.27;;;;;;;16.73;62.78;97824.58;2169916;82;20909;-80
2022/09/16 12:01:41;;;;;;;4.22;2.20;;;;;;;16.62;63.69;97818.72;2169936;81;21417;-81
2022/09/16 12:04:42;;;;;;;5.17;1.87;;;;;;;16.56;64.11;97820.63;2169920;81;20964;-82
2022/09/16 12:07:42;;;;;;;3.55;1.67;;;;;;;16.39;64.15;97816.24;2169458;81;21031;-79
2022/09/16 12:10:42;;;;;;;3.62;1.55;;;;;;;16.43;63.64;97816.56;2169770;81;20964;-80
2022/09/16 12:13:43;;;;;;;3.17;1.85;;;;;;;16.49;64.90;97819.06;2169425;81;21039;-80
2022/09/16 12:16:43;;;;;;;2.45;1.70;;;;;;;16.65;62.66;97810.73;2169831;81;21009;-81
2022/09/16 12:19:44;;;;;;;1.45;1.35;;;;;;;16.68;63.27;97816.80;2169734;81;20964;-82
2022/09/16 12:22:44;;;;;;;1.70;1.60;;;;;;;16.62;62.72;97812.99;2169726;81;21008;-81
2022/09/16 12:25:46;;;;;;;4.25;1.60;;;;;;;16.46;62.52;97815.16;2169008;81;20972;-79
2022/09/16 12:28:45;;;;;;;3.05;1.95;;;;;;;16.31;63.40;97814.27;2171419;81;21015;-79
2022/09/16 12:31:45;;;;;;;3.15;1.60;;;;;;;16.22;62.73;97811.44;2184897;81;21011;-82
2022/09/16 12:34:46;;;;;;;3.83;2.08;;;;;;;16.15;62.98;97801.98;2186135;81;20967;-83
2022/09/16 12:37:47;;;;;;;2.83;1.50;;;;;;;16.02;64.07;97801.89;2185633;81;20932;-81
2022/09/16 12:40:49;;;;;;;7.53;2.00;;;;;;;15.90;64.14;97797.81;2168575;81;21019;-82
2022/09/16 12:43:49;;;;;;;3.67;1.98;;;;;;;15.76;65.38;97804.34;2186084;81;20928;-83
2022/09/16 12:46:49;;;;;;;5.17;1.67;;;;;;;15.77;65.79;97798.17;2186849;81;21031;-84
2022/09/16 12:49:52;;;;;;;5.97;2.75;;;;;;;15.72;65.44;97802.69;2187222;81;21012;-84
2022/09/16 12:52:50;;;;;;;6.53;2.50;;;;;;;15.71;65.77;97793.93;2187100;81;20976;-83
2022/09/16 12:55:50;;;;;;;9.63;4.20;;;;;;;15.70;66.50;97785.63;2187180;81;21340;-83
2022/09/16 12:58:51;;;;;;;3.40;1.92;;;;;;;15.73;66.58;97781.60;2186984;81;21007;-83
2022/09/16 13:01:51;;;;;;;2.95;1.75;;;;;;;15.70;65.41;97787.39;2187407;81;21031;-84
2022/09/16 13:04:55;;;;;;;3.87;1.90;;;;;;;15.75;64.64;97781.11;2186648;81;21039;-84
2022/09/16 13:07:55;;;;;;;9.88;2.72;;;;;;;15.81;64.59;97784.03;2187146;81;21310;-83
2022/09/16 13:10:55;;;;;;;7.33;2.22;;;;;;;15.98;64.87;97784.91;2186998;81;21056;-83
2022/09/16 13:13:56;;;;;;;5.95;2.02;;;;;;;16.09;64.59;97789.44;2185885;81;20999;-83
2022/09/16 13:16:56;;;;;;;4.12;2.02;;;;;;;16.20;64.35;97788.69;2186021;81;21051;-83
2022/09/16 13:19:57;;;;;;;7.55;2.00;;;;;;;16.33;63.78;97788.77;2186242;81;21635;-84
2022/09/16 13:22:57;;;;;;;4.10;2.10;;;;;;;16.47;63.55;97789.69;2186249;81;20984;-83
2022/09/16 13:25:57;;;;;;;5.50;1.72;;;;;;;16.57;62.60;97785.92;2185838;81;20971;-85
2022/09/16 13:28:58;;;;;;;4.90;1.82;;;;;;;16.56;62.26;97792.95;2186475;81;21003;-83
2022/09/16 13:31:58;;;;;;;2.80;1.60;;;;;;;16.53;62.06;97802.72;2186484;81;21007;-84
2022/09/16 13:34:59;;;;;;;4.28;1.45;;;;;;;16.40;62.03;97802.17;2187182;81;20944;-84
2022/09/16 13:38:00;;;;;;;3.90;2.08;;;;;;;16.22;63.27;97802.22;2186255;81;21503;-84
2022/09/16 13:41:00;;;;;;;5.47;2.50;;;;;;;16.16;64.94;97801.53;2187502;81;20967;-84
2022/09/16 13:44:00;;;;;;;14.05;10.08;;;;;;;16.15;66.57;97802.43;2187465;81;20996;-84
2022/09/16 13:47:00;;;;;;;6.20;2.67;;;;;;;16.23;67.51;97795.19;2187617;81;20952;-82
2022/09/16 13:50:01;;;;;;;5.15;2.50;;;;;;;16.39;67.46;97788.59;2188181;81;20928;-85
2022/09/16 13:53:01;;;;;;;12.28;2.83;;;;;;;16.56;68.22;97792.95;2188859;81;21019;-78
2022/09/16 13:56:02;;;;;;;9.53;2.62;;;;;;;16.70;68.03;97785.14;2187876;81;20991;-86
2022/09/16 13:59:02;;;;;;;5.55;2.17;;;;;;;16.72;67.44;97793.86;2188465;81;20964;-85
2022/09/16 14:02:02;;;;;;;3.72;1.95;;;;;;;16.69;66.19;97791.31;2188918;81;20975;-85
2022/09/16 14:05:03;;;;;;;7.28;2.05;;;;;;;16.48;66.67;97800.22;2188428;81;21050;-84